Time;durP1;ratioP1;P1;durP2;ratioP2;P2;SDS_P1;SDS_P2;PMS_P1;PMS_P2;Temp;Humidity;BMP_temperature;BMP_pressure;BME280_temperature;BME280_humidity;BME280_pressure;Samples;Min_cycle;Max_cycle;Signal;HPM_P1;HPM_P2
2023/10/06 00:02:57;;;;;;;;;;;;;;;11.73;100.00;102374.47;5113876;28;20446;-46
2023/10/06 00:05:23;;;;;;;;;;;;;;;11.72;100.00;102380.44;5114137;28;19912;-46
2023/10/06 00:07:50;;;;;;;;;;;;;;;11.70;100.00;102377.78;5114721;28;19912;-47
2023/10/06 00:10:23;;;;;;;;;;;;;;;11.69;100.00;102373.44;5113201;28;20343;-48
2023/10/06 00:12:54;;;;;;;;;;;;;;;11.67;100.00;102375.03;5114617;28;19911;-52
2023/10/06 00:15:28;;;;;;;;;;;;;;;11.65;100.00;102372.38;5114127;28;20030;-49
2023/10/06 00:18:00;;;;;;;;;;;;;;;11.64;100.00;102374.91;5113441;28;19911;-44
2023/10/06 00:20:33;;;;;;;;;;;;;;;11.60;100.00;102370.41;5114128;28;20282;-47
2023/10/06 00:23:04;;;;;;;;;;;;;;;11.58;100.00;102365.16;5114433;28;20290;-47
2023/10/06 00:25:31;;;;;;;;;;;;;;;11.56;100.00;102381.38;5113607;28;19911;-49
2023/10/06 00:28:00;;;;;;;;;;;;;;;11.54;100.00;102368.38;5114192;28;20000;-45
2023/10/06 00:30:25;;;;;;;;;;;;;;;11.52;100.00;102370.88;5112881;28;19949;-48
2023/10/06 00:32:50;;;;;;;;;;;;;;;11.51;100.00;102374.28;5114144;28;19912;-49
2023/10/06 00:35:30;;;;;;;;;;;;;;;11.49;100.00;102363.00;5113861;28;19915;-45
2023/10/06 00:38:08;;;;;;;;;;;;;;;11.50;100.00;102372.53;5113080;28;19915;-46
2023/10/06 00:40:35;;;;;;;;;;;;;;;11.49;100.00;102372.44;5113628;28;19915;-49
2023/10/06 00:43:01;;;;;;;;;;;;;;;11.48;100.00;102374.13;5113789;28;19918;-49
2023/10/06 00:45:30;;;;;;;;;;;;;;;11.48;100.00;102371.56;5113032;28;20321;-49
2023/10/06 00:47:55;;;;;;;;;;;;;;;11.48;100.00;102371.56;5113966;28;19908;-46
2023/10/06 00:50:24;;;;;;;;;;;;;;;11.45;100.00;102366.25;5113662;28;20263;-48
2023/10/06 00:52:50;;;;;;;;;;;;;;;11.45;100.00;102367.91;5113130;28;20007;-48
2023/10/06 00:55:17;;;;;;;;;;;;;;;11.44;100.00;102371.31;5113349;28;19912;-49
2023/10/06 00:57:45;;;;;;;;;;;;;;;11.41;100.00;102366.88;5113464;28;19922;-45
2023/10/06 01:00:20;;;;;;;;;;;;;;;11.38;100.00;102361.56;5112647;28;20363;-44
2023/10/06 01:02:45;;;;;;;;;;;;;;;11.34;100.00;102352.78;5113805;28;19915;-47
2023/10/06 01:05:11;;;;;;;;;;;;;;;11.33;100.00;102352.72;5113607;28;20252;-44
2023/10/06 01:07:40;;;;;;;;;;;;;;;11.31;100.00;102354.31;5113268;28;19977;-47
2023/10/06 01:10:16;;;;;;;;;;;;;;;11.29;100.00;102356.81;5113533;28;20249;-49
2023/10/06 01:12:41;;;;;;;;;;;;;;;11.27;100.00;102353.28;5112816;28;19965;-48
2023/10/06 01:15:17;;;;;;;;;;;;;;;11.27;100.00;102339.47;5113602;28;19912;-45
2023/10/06 01:17:43;;;;;;;;;;;;;;;11.27;100.00;102336.91;5113507;28;19907;-48
2023/10/06 01:20:10;;;;;;;;;;;;;;;11.26;100.00;102336.03;5112664;28;20363;-48
2023/10/06 01:22:41;;;;;;;;;;;;;;;11.25;100.00;102330.78;5113057;28;20359;-46
2023/10/06 01:25:12;;;;;;;;;;;;;;;11.27;100.00;102347.22;5113676;28;20002;-47
2023/10/06 01:27:38;;;;;;;;;;;;;;;11.27;100.00;102344.66;5112623;28;20412;-49
2023/10/06 01:32:44;;;;;;;;;;;;;;;11.27;100.00;102331.75;5113282;28;19980;-48
2023/10/06 01:35:13;;;;;;;;;;;;;;;11.26;100.00;102329.97;5112471;28;19920;-47
2023/10/06 01:37:42;;;;;;;;;;;;;;;11.25;100.00;102326.50;5113484;28;19911;-46
2023/10/06 01:40:15;;;;;;;;;;;;;;;11.24;100.00;102329.03;5113215;28;20355;-46
2023/10/06 01:42:40;;;;;;;;;;;;;;;11.23;100.00;102330.69;5112523;28;19915;-49
2023/10/06 01:45:14;;;;;;;;;;;;;;;11.22;100.00;102326.38;5113202;28;19957;-46
2023/10/06 01:47:39;;;;;;;;;;;;;;;11.20;100.00;102315.94;5112640;28;19916;-48
2023/10/06 01:50:05;;;;;;;;;;;;;;;11.22;100.00;102322.88;5112976;28;19919;-47
2023/10/06 01:52:30;;;;;;;;;;;;;;;11.20;100.00;102309.91;5112934;28;19915;-47
2023/10/06 01:55:09;;;;;;;;;;;;;;;11.19;100.00;102314.19;5112334;28;20285;-49
2023/10/06 01:57:34;;;;;;;;;;;;;;;11.18;100.00;102303.75;5112792;28;19916;-49
2023/10/06 01:59:59;;;;;;;;;;;;;;;11.17;100.00;102307.19;5113055;28;20010;-49
2023/10/06 02:02:24;;;;;;;;;;;;;;;11.16;100.00;102302.81;5112766;28;19907;-49
2023/10/06 02:04:52;;;;;;;;;;;;;;;11.16;100.00;102297.66;5116841;28;19915;-46
2023/10/06 02:07:18;;;;;;;;;;;;;;;11.15;100.00;102304.50;5116541;28;19915;-47
2023/10/06 02:09:43;;;;;;;;;;;;;;;11.14;100.00;102310.50;5115847;28;19931;-49
2023/10/06 02:12:09;;;;;;;;;;;;;;;11.13;100.00;102313.88;5116537;28;20312;-49
2023/10/06 02:14:35;;;;;;;;;;;;;;;11.11;100.00;102315.47;5116209;28;19941;-48
2023/10/06 02:17:05;;;;;;;;;;;;;;;11.11;100.00;102323.22;5115759;28;19912;-44
2023/10/06 02:19:32;;;;;;;;;;;;;;;11.09;100.00;102319.69;5116147;28;20006;-49
2023/10/06 02:21:57;;;;;;;;;;;;;;;11.09;100.00;102319.69;5116441;28;19912;-48
2023/10/06 02:24:23;;;;;;;;;;;;;;;11.07;100.00;102316.13;5115309;28;19979;-48
2023/10/06 02:26:57;;;;;;;;;;;;;;;11.02;100.00;102321.03;5116338;28;19918;-46
2023/10/06 02:29:23;;;;;;;;;;;;;;;11.01;100.00;102324.47;5115915;28;19954;-47
2023/10/06 02:31:48;;;;;;;;;;;;;;;10.99;100.00;102317.44;5115574;28;19912;-47
2023/10/06 02:34:18;;;;;;;;;;;;;;;10.97;100.00;102317.34;5115898;28;20053;-49
2023/10/06 02:36:43;;;;;;;;;;;;;;;10.96;100.00;102314.69;5115538;28;19912;-46
2023/10/06 02:39:08;;;;;;;;;;;;;;;10.96;100.00;102317.28;5116016;28;19911;-48
2023/10/06 02:41:34;;;;;;;;;;;;;;;10.93;100.00;102315.41;5115716;28;19918;-46
2023/10/06 02:44:13;;;;;;;;;;;;;;;10.93;100.00;102314.53;5115116;28;19911;-49
2023/10/06 02:46:39;;;;;;;;;;;;;;;10.91;100.00;102316.16;5116301;28;19916;-48
2023/10/06 02:49:08;;;;;;;;;;;;;;;10.89;100.00;102312.63;5115844;28;19911;-48
2023/10/06 02:51:33;;;;;;;;;;;;;;;10.89;100.00;102307.47;5114766;28;19943;-48
2023/10/06 02:56:41;;;;;;;;;;;;;;;10.83;100.00;102298.59;5116188;28;19965;-48
2023/10/06 02:59:20;;;;;;;;;;;;;;;10.82;100.00;102295.91;5114720;28;19915;-49
2023/10/06 03:01:51;;;;;;;;;;;;;;;10.79;100.00;102291.47;5115846;28;20010;-46
2023/10/06 03:04:17;;;;;;;;;;;;;;;10.79;100.00;102290.59;5115385;28;19911;-49
2023/10/06 03:06:42;;;;;;;;;;;;;;;10.75;100.00;102291.25;5114628;28;19959;-49
2023/10/06 03:09:07;;;;;;;;;;;;;;;10.75;100.00;102286.09;5115331;28;19951;-49
2023/10/06 03:11:33;;;;;;;;;;;;;;;10.74;100.00;102286.91;5115241;28;19911;-46
2023/10/06 03:13:59;;;;;;;;;;;;;;;10.72;100.00;102294.56;5113476;28;19918;-49
2023/10/06 03:16:25;;;;;;;;;;;;;;;10.70;100.00;102291.91;5115074;28;19912;-47
2023/10/06 03:18:52;;;;;;;;;;;;;;;10.70;100.00;102301.31;5115347;28;19958;-46
2023/10/06 03:21:18;;;;;;;;;;;;;;;10.68;100.00;102297.78;5114279;28;19916;-50
2023/10/06 03:23:49;;;;;;;;;;;;;;;10.67;100.00;102301.19;5115160;28;19964;-49
2023/10/06 03:26:33;;;;;;;;;;;;;;;10.65;100.00;102292.47;5114188;28;19912;-46
2023/10/06 03:29:02;;;;;;;;;;;;;;;10.63;100.00;102288.94;5115151;28;20274;-47
2023/10/06 03:31:44;;;;;;;;;;;;;;;10.61;100.00;102295.69;5114960;28;19967;-48
2023/10/06 03:34:15;;;;;;;;;;;;;;;10.58;100.00;102295.53;5114398;28;19911;-45
2023/10/06 03:36:46;;;;;;;;;;;;;;;10.54;100.00;102292.78;5115107;28;19967;-48
2023/10/06 03:39:11;;;;;;;;;;;;;;;10.52;100.00;102286.69;5114539;28;20393;-45
2023/10/06 03:41:37;;;;;;;;;;;;;;;10.51;100.00;102289.19;5114002;28;19911;-47
2023/10/06 03:44:06;;;;;;;;;;;;;;;10.48;100.00;102279.59;5114733;28;19918;-49
2023/10/06 03:46:38;;;;;;;;;;;;;;;10.48;100.00;102283.84;5114701;28;19916;-47
2023/10/06 03:49:04;;;;;;;;;;;;;;;10.44;100.00;102275.06;5113995;28;20278;-47
2023/10/06 03:51:33;;;;;;;;;;;;;;;10.43;100.00;102273.31;5114587;28;20385;-49
2023/10/06 03:53:58;;;;;;;;;;;;;;;10.44;100.00;102275.06;5114608;28;19911;-48
2023/10/06 03:56:24;;;;;;;;;;;;;;;10.43;100.00;102265.56;5113535;28;19919;-47
2023/10/06 03:58:49;;;;;;;;;;;;;;;10.42;100.00;102258.63;5114269;28;19916;-47
2023/10/06 04:01:26;;;;;;;;;;;;;;;10.43;100.00;102263.00;5113598;28;19912;-49
2023/10/06 04:03:51;;;;;;;;;;;;;;;10.43;100.00;102264.66;5114707;28;19912;-49
2023/10/06 04:06:17;;;;;;;;;;;;;;;10.44;100.00;102261.28;5114188;28;19938;-47
2023/10/06 04:08:45;;;;;;;;;;;;;;;10.43;100.00;102255.25;5113472;28;20359;-49
2023/10/06 04:11:13;;;;;;;;;;;;;;;10.41;100.00;102256.00;5114109;28;19912;-47
2023/10/06 04:13:38;;;;;;;;;;;;;;;10.41;100.00;102256.00;5114318;28;19935;-48
2023/10/06 04:16:04;;;;;;;;;;;;;;;10.39;100.00;102253.31;5113632;28;20359;-47
2023/10/06 04:18:29;;;;;;;;;;;;;;;10.38;100.00;102246.41;5113859;28;19916;-46
2023/10/06 04:20:54;;;;;;;;;;;;;;;10.40;100.00;102246.47;5114256;28;19911;-46
2023/10/06 04:23:23;;;;;;;;;;;;;;;10.41;100.00;102261.16;5112998;28;19961;-49
2023/10/06 04:25:50;;;;;;;;;;;;;;;10.40;100.00;102270.56;5113662;28;19971;-48
2023/10/06 04:28:16;;;;;;;;;;;;;;;10.38;100.00;102264.44;5113991;28;19912;-48
2023/10/06 04:30:42;;;;;;;;;;;;;;;10.39;100.00;102268.78;5113026;28;19919;-46
2023/10/06 04:33:10;;;;;;;;;;;;;;;10.37;100.00;102267.81;5113912;28;19919;-47
2023/10/06 04:35:35;;;;;;;;;;;;;;;10.36;100.00;102254.03;5113713;28;19990;-49
2023/10/06 04:38:05;;;;;;;;;;;;;;;10.35;100.00;102259.06;5113022;28;20458;-48
2023/10/06 04:40:32;;;;;;;;;;;;;;;10.37;100.00;102262.66;5113619;28;19920;-47
2023/10/06 04:42:57;;;;;;;;;;;;;;;10.37;100.00;102252.34;5114040;28;19951;-49
2023/10/06 04:45:23;;;;;;;;;;;;;;;10.36;100.00;102246.28;5112855;28;19951;-48
2023/10/06 04:47:48;;;;;;;;;;;;;;;10.37;100.00;102254.94;5113908;28;19912;-47
2023/10/06 04:50:15;;;;;;;;;;;;;;;10.36;100.00;102245.44;5113703;28;20014;-46
2023/10/06 04:52:44;;;;;;;;;;;;;;;10.38;100.00;102261.88;5113037;28;20278;-48
2023/10/06 04:55:13;;;;;;;;;;;;;;;10.39;100.00;102245.56;5113559;28;20274;-46
2023/10/06 04:57:38;;;;;;;;;;;;;;;10.41;100.00;102256.00;5112856;28;19950;-48
2023/10/06 05:00:06;;;;;;;;;;;;;;;10.41;100.00;102250.84;5113689;28;19911;-49
2023/10/06 05:02:34;;;;;;;;;;;;;;;10.40;100.00;102244.78;5113315;28;19916;-48
2023/10/06 05:04:59;;;;;;;;;;;;;;;10.41;100.00;102246.56;5112826;28;19911;-46
2023/10/06 05:07:25;;;;;;;;;;;;;;;10.42;100.00;102253.50;5113257;28;19908;-50
2023/10/06 05:09:52;;;;;;;;;;;;;;;10.43;100.00;102244.97;5113477;28;19912;-47
2023/10/06 05:12:18;;;;;;;;;;;;;;;10.45;100.00;102252.75;5112349;28;20316;-46
2023/10/06 05:14:46;;;;;;;;;;;;;;;10.47;100.00;102243.41;5113628;28;19911;-46
2023/10/06 05:17:16;;;;;;;;;;;;;;;10.49;100.00;102242.69;5113113;28;19915;-45
2023/10/06 05:19:41;;;;;;;;;;;;;;;10.50;100.00;102252.19;5112621;28;20365;-49
2023/10/06 05:22:06;;;;;;;;;;;;;;;10.49;100.00;102249.53;5113367;28;20475;-45
2023/10/06 05:24:32;;;;;;;;;;;;;;;10.48;100.00;102245.19;5113257;28;20328;-45
2023/10/06 05:26:57;;;;;;;;;;;;;;;10.48;100.00;102247.75;5112662;28;20320;-47
2023/10/06 05:29:25;;;;;;;;;;;;;;;10.46;100.00;102245.09;5113168;28;20371;-47
2023/10/06 05:31:50;;;;;;;;;;;;;;;10.45;100.00;102237.28;5113360;28;19965;-48
2023/10/06 05:34:17;;;;;;;;;;;;;;;10.44;100.00;102246.69;5112031;28;19911;-48
2023/10/06 05:36:42;;;;;;;;;;;;;;;10.45;100.00;102245.91;5113233;28;19965;-45
2023/10/06 05:39:11;;;;;;;;;;;;;;;10.44;100.00;102241.53;5116780;28;19912;-48
2023/10/06 05:41:36;;;;;;;;;;;;;;;10.44;100.00;102251.84;5116521;28;19919;-48
2023/10/06 05:44:02;;;;;;;;;;;;;;;10.43;100.00;102239.81;5117045;28;19911;-48
2023/10/06 05:46:27;;;;;;;;;;;;;;;10.44;100.00;102238.09;5116778;28;19912;-48
2023/10/06 05:48:53;;;;;;;;;;;;;;;10.44;100.00;102240.69;5116207;28;19964;-46
2023/10/06 05:51:21;;;;;;;;;;;;;;;10.43;100.00;102234.66;5116548;28;19956;-46
2023/10/06 05:53:48;;;;;;;;;;;;;;;10.43;100.00;102239.81;5116334;28;19912;-47
2023/10/06 05:56:15;;;;;;;;;;;;;;;10.44;100.00;102240.69;5116787;28;19911;-49
2023/10/06 05:58:43;;;;;;;;;;;;;;;10.44;100.00;102241.53;5116802;28;19919;-47
2023/10/06 06:01:13;;;;;;;;;;;;;;;10.47;100.00;102244.31;5116079;28;19911;-48
2023/10/06 06:03:47;;;;;;;;;;;;;;;10.50;100.00;102252.19;5116691;28;19955;-48
2023/10/06 06:06:14;;;;;;;;;;;;;;;10.54;100.00;102238.66;5116327;28;20475;-47
2023/10/06 06:08:47;;;;;;;;;;;;;;;10.57;100.00;102243.06;5115917;28;19962;-48
2023/10/06 06:11:12;;;;;;;;;;;;;;;10.62;100.00;102245.91;5116503;28;19911;-46
2023/10/06 06:13:38;;;;;;;;;;;;;;;10.67;100.00;102249.59;5116562;28;19918;-48
2023/10/06 06:16:05;;;;;;;;;;;;;;;10.70;100.00;102249.75;5115703;28;19939;-46
2023/10/06 06:18:30;;;;;;;;;;;;;;;10.75;100.00;102253.47;5116283;28;19990;-49
2023/10/06 06:20:56;;;;;;;;;;;;;;;10.80;100.00;102257.16;5116622;28;20404;-49
2023/10/06 06:23:21;;;;;;;;;;;;;;;10.82;100.00;102260.72;5115405;28;19915;-47
2023/10/06 06:25:46;;;;;;;;;;;;;;;10.87;100.00;102261.84;5116452;28;19911;-47
2023/10/06 06:28:14;;;;;;;;;;;;;;;10.89;100.00;102259.31;5116046;28;19923;-49
2023/10/06 06:30:40;;;;;;;;;;;;;;;10.93;100.00;102258.66;5115403;28;19912;-48
2023/10/06 06:33:12;;;;;;;;;;;;;;;10.95;100.00;102257.06;5116006;28;19919;-49
2023/10/06 06:35:37;;;;;;;;;;;;;;;10.99;100.00;102259.00;5116210;28;19911;-48
2023/10/06 06:38:04;;;;;;;;;;;;;;;11.00;100.00;102260.75;5115385;28;19911;-47
2023/10/06 06:40:30;;;;;;;;;;;;;;;11.03;100.00;102260.03;5115748;28;19912;-49
2023/10/06 06:42:55;;;;;;;;;;;;;;;11.04;100.00;102256.66;5115140;28;19935;-50
2023/10/06 06:45:24;;;;;;;;;;;;;;;11.06;100.00;102264.47;5115670;28;20008;-49
2023/10/06 06:47:49;;;;;;;;;;;;;;;11.08;100.00;102258.56;5116100;28;19912;-48
2023/10/06 06:50:17;;;;;;;;;;;;;;;11.07;100.00;102251.63;5114707;28;19938;-48
2023/10/06 06:52:43;;;;;;;;;;;;;;;11.09;100.00;102250.03;5115800;28;19965;-49
2023/10/06 06:55:14;;;;;;;;;;;;;;;11.09;100.00;102255.19;5115824;28;19911;-47
2023/10/06 06:57:41;;;;;;;;;;;;;;;11.10;100.00;102256.94;5114812;28;19915;-47
2023/10/06 07:00:14;;;;;;;;;;;;;;;11.13;100.00;102257.09;5115617;28;19961;-46
2023/10/06 07:02:39;;;;;;;;;;;;;;;11.14;100.00;102253.72;5115794;28;19911;-49
2023/10/06 07:05:04;;;;;;;;;;;;;;;11.14;100.00;102258.88;5114877;28;20283;-47
2023/10/06 07:07:30;;;;;;;;;;;;;;;11.15;100.00;102252.88;5115239;28;19911;-47
2023/10/06 07:09:55;;;;;;;;;;;;;;;11.16;100.00;102252.09;5115392;28;19919;-46
2023/10/06 07:12:23;;;;;;;;;;;;;;;11.18;100.00;102255.63;5114189;28;19912;-47
2023/10/06 07:14:48;;;;;;;;;;;;;;;11.23;100.00;102257.56;5115538;28;19951;-48
2023/10/06 07:17:13;;;;;;;;;;;;;;;11.27;100.00;102259.47;5115260;28;19911;-45
2023/10/06 07:19:39;;;;;;;;;;;;;;;11.27;100.00;102260.38;5114668;28;19912;-46
2023/10/06 07:22:06;;;;;;;;;;;;;;;11.31;100.00;102261.38;5115299;28;19998;-48
2023/10/06 07:24:31;;;;;;;;;;;;;;;11.34;100.00;102259.84;5114821;28;19920;-47
2023/10/06 07:26:56;;;;;;;;;;;;;;;11.40;100.00;102260.97;5114211;28;19911;-48
2023/10/06 07:29:21;;;;;;;;;;;;;;;11.48;100.00;102270.00;5114868;28;19911;-47
2023/10/06 07:31:49;;;;;;;;;;;;;;;11.56;100.00;102265.19;5115223;28;20036;-48
2023/10/06 07:34:15;;;;;;;;;;;;;;;11.63;100.00;102260.41;5114081;28;19915;-48
2023/10/06 07:36:43;;;;;;;;;;;;;;;11.72;100.00;102262.50;5114992;28;19912;-49
2023/10/06 07:39:09;;;;;;;;;;;;;;;11.80;100.00;102265.47;5114126;28;20002;-47
2023/10/06 07:41:34;;;;;;;;;;;;;;;11.90;100.00;102271.97;5114446;28;19998;-46
2023/10/06 07:43:59;;;;;;;;;;;;;;;12.00;100.00;102266.44;5114850;28;20011;-47
2023/10/06 07:46:26;;;;;;;;;;;;;;;12.11;100.00;102270.41;5113873;28;19919;-49
2023/10/06 07:48:53;;;;;;;;;;;;;;;12.21;100.00;102288.94;5114870;28;20002;-48
2023/10/06 07:51:19;;;;;;;;;;;;;;;12.31;100.00;102288.53;5114371;28;19922;-49
2023/10/06 07:53:44;;;;;;;;;;;;;;;12.39;100.00;102287.16;5113729;28;19937;-48
2023/10/06 07:56:11;;;;;;;;;;;;;;;12.51;100.00;102289.41;5114402;28;19911;-49
2023/10/06 07:58:43;;;;;;;;;;;;;;;12.62;100.00;102295.09;5114253;28;20073;-49
2023/10/06 08:01:08;;;;;;;;;;;;;;;12.71;100.00;102299.78;5112832;28;19915;-48
2023/10/06 08:03:41;;;;;;;;;;;;;;;12.78;100.00;102307.88;5114148;28;19911;-47
2023/10/06 08:06:07;;;;;;;;;;;;;;;12.87;100.00;102301.34;5114306;28;20275;-48
2023/10/06 08:08:33;;;;;;;;;;;;;;;12.98;100.00;102292.34;5113164;28;19957;-49
2023/10/06 08:11:00;;;;;;;;;;;;;;;13.13;100.00;102287.81;5114304;28;19997;-45
2023/10/06 08:13:25;;;;;;;;;;;;;;;13.26;100.00;102286.63;5114002;28;19911;-49
2023/10/06 08:15:51;;;;;;;;;;;;;;;13.39;100.00;102284.56;5113481;28;19922;-49
2023/10/06 08:18:16;;;;;;;;;;;;;;;13.56;100.00;102272.31;5113953;28;19911;-47
2023/10/06 08:20:41;;;;;;;;;;;;;;;13.75;100.00;102277.41;5114147;28;19911;-49
2023/10/06 08:23:11;;;;;;;;;;;;;;;14.00;100.00;102288.72;5113239;28;19912;-49
2023/10/06 08:25:36;;;;;;;;;;;;;;;14.22;100.00;102285.22;5114311;28;19911;-45
2023/10/06 08:28:04;;;;;;;;;;;;;;;14.41;100.00;102280.72;5113920;28;20388;-49
2023/10/06 08:30:32;;;;;;;;;;;;;;;14.55;100.00;102279.53;5113011;28;19947;-48
2023/10/06 08:32:59;;;;;;;;;;;;;;;14.65;100.00;102280.75;5113927;28;19919;-49
2023/10/06 08:35:24;;;;;;;;;;;;;;;14.84;100.00;102284.03;5112950;28;20286;-48
2023/10/06 08:37:51;;;;;;;;;;;;;;;15.05;100.00;102281.28;5113635;28;19912;-49
2023/10/06 08:40:17;;;;;;;;;;;;;;;15.10;100.00;102279.72;5113743;28;19915;-44
2023/10/06 08:42:51;;;;;;;;;;;;;;;15.18;100.00;102277.38;5113289;28;19964;-47
2023/10/06 08:45:18;;;;;;;;;;;;;;;15.26;100.00;102275.91;5113430;28;19914;-46
2023/10/06 08:47:44;;;;;;;;;;;;;;;15.30;100.00;102283.88;5113660;28;19957;-48
2023/10/06 08:50:12;;;;;;;;;;;;;;;15.38;100.00;102280.66;5113000;28;19908;-49
2023/10/06 08:52:37;;;;;;;;;;;;;;;15.43;100.00;102289.47;5113525;28;19911;-48
2023/10/06 08:55:03;;;;;;;;;;;;;;;15.57;100.00;102280.41;5113805;28;19911;-48
2023/10/06 08:57:30;;;;;;;;;;;;;;;15.66;100.00;102297.13;5112432;28;20309;-49
2023/10/06 08:59:56;;;;;;;;;;;;;;;15.67;100.00;102298.88;5113689;28;19919;-49
2023/10/06 09:02:24;;;;;;;;;;;;;;;15.69;100.00;102292.91;5113244;28;19951;-48
2023/10/06 09:04:50;;;;;;;;;;;;;;;15.69;100.00;102298.09;5112738;28;19964;-49
2023/10/06 09:07:17;;;;;;;;;;;;;;;15.62;100.00;102296.13;5113125;28;19994;-49
2023/10/06 09:09:43;;;;;;;;;;;;;;;15.61;100.00;102299.59;5113407;28;20267;-47
2023/10/06 09:12:24;;;;;;;;;;;;;;;15.66;100.00;102303.22;5114859;28;20368;-49
2023/10/06 09:14:56;;;;;;;;;;;;;;;15.83;100.00;102300.28;5117853;28;20385;-49
2023/10/06 09:17:31;;;;;;;;;;;;;;;16.19;100.00;102299.63;5117274;28;20313;-49
2023/10/06 09:19:56;;;;;;;;;;;;;;;16.46;100.00;102287.44;5116690;28;19919;-47
2023/10/06 09:22:28;;;;;;;;;;;;;;;16.61;100.00;102283.50;5117058;28;19911;-48
2023/10/06 09:24:59;;;;;;;;;;;;;;;16.65;100.00;102284.47;5116734;28;20412;-45
2023/10/06 09:27:25;;;;;;;;;;;;;;;16.64;100.00;102273.16;5117223;28;19969;-47
2023/10/06 09:30:00;;;;;;;;;;;;;;;16.61;100.00;102270.47;5117417;28;20004;-48
2023/10/06 09:32:25;;;;;;;;;;;;;;;16.79;100.00;102264.88;5116325;28;19919;-49
2023/10/06 09:34:53;;;;;;;;;;;;;;;17.18;100.00;102268.50;5117256;28;19915;-47
2023/10/06 09:37:19;;;;;;;;;;;;;;;17.60;100.00;102278.22;5116806;28;20259;-49
2023/10/06 09:39:45;;;;;;;;;;;;;;;17.72;99.53;102270.66;5116464;28;19912;-49
2023/10/06 09:42:12;;;;;;;;;;;;;;;17.76;96.81;102271.63;5117056;28;20259;-48
2023/10/06 09:44:41;;;;;;;;;;;;;;;17.86;99.70;102270.97;5117128;28;19919;-47
2023/10/06 09:47:08;;;;;;;;;;;;;;;18.04;98.70;102261.84;5116436;28;19926;-48
2023/10/06 09:49:35;;;;;;;;;;;;;;;18.08;95.12;102264.53;5116814;28;19934;-47
2023/10/06 09:52:03;;;;;;;;;;;;;;;18.04;94.95;102260.09;5117006;28;19911;-47
2023/10/06 09:54:30;;;;;;;;;;;;;;;17.78;94.47;102260.38;5116131;28;19911;-46
2023/10/06 09:56:55;;;;;;;;;;;;;;;17.54;96.68;102259.81;5116572;28;20437;-49
2023/10/06 09:59:22;;;;;;;;;;;;;;;17.40;96.73;102262.09;5116472;28;19998;-48
2023/10/06 10:01:48;;;;;;;;;;;;;;;17.34;98.78;102273.28;5115849;28;20321;-47
2023/10/06 10:04:16;;;;;;;;;;;;;;;17.44;96.90;102269.16;5116604;28;20312;-48
2023/10/06 10:06:45;;;;;;;;;;;;;;;17.63;96.77;102262.63;5116751;28;19952;-45
2023/10/06 10:09:15;;;;;;;;;;;;;;;17.89;95.27;102257.13;5115784;28;19965;-47
2023/10/06 10:11:42;;;;;;;;;;;;;;;18.09;93.40;102255.00;5116558;28;19912;-46
2023/10/06 10:14:26;;;;;;;;;;;;;;;18.10;92.59;102254.13;5115604;28;19911;-46
2023/10/06 10:16:58;;;;;;;;;;;;;;;18.18;92.64;102246.44;5116396;28;19911;-48
2023/10/06 10:19:26;;;;;;;;;;;;;;;18.22;94.34;102250.91;5116246;28;19912;-48
2023/10/06 10:21:53;;;;;;;;;;;;;;;18.28;93.87;102251.00;5115629;28;19916;-48
2023/10/06 10:24:22;;;;;;;;;;;;;;;18.24;94.58;102246.59;5115299;28;19951;-47
2023/10/06 10:26:50;;;;;;;;;;;;;;;18.23;95.92;102252.66;5116436;28;20001;-49
2023/10/06 10:29:18;;;;;;;;;;;;;;;18.23;93.01;102242.22;5115426;28;19934;-52
2023/10/06 10:31:46;;;;;;;;;;;;;;;18.14;93.41;102247.25;5116370;28;20332;-45
2023/10/06 10:34:25;;;;;;;;;;;;;;;18.04;93.63;102247.06;5115897;28;19915;-47
2023/10/06 10:37:08;;;;;;;;;;;;;;;17.91;92.96;102245.03;5115338;28;19912;-48
2023/10/06 10:39:45;;;;;;;;;;;;;;;17.82;93.79;102250.91;5115700;28;20363;-48
2023/10/06 10:42:12;;;;;;;;;;;;;;;17.84;94.58;102249.19;5115312;28;19965;-48
2023/10/06 10:44:37;;;;;;;;;;;;;;;17.86;94.73;102237.09;5116020;28;19919;-45
2023/10/06 10:47:05;;;;;;;;;;;;;;;17.84;94.11;102243.97;5115902;28;19916;-46
2023/10/06 10:49:32;;;;;;;;;;;;;;;17.85;93.96;102234.44;5115003;28;19954;-48
2023/10/06 10:52:02;;;;;;;;;;;;;;;18.07;96.85;102247.09;5116001;28;19938;-48
2023/10/06 10:54:28;;;;;;;;;;;;;;;18.38;90.12;102236.44;5115573;28;19911;-49
2023/10/06 10:57:01;;;;;;;;;;;;;;;18.25;89.95;102240.53;5114890;28;19911;-48
2023/10/06 10:59:46;;;;;;;;;;;;;;;18.21;92.07;102242.19;5115436;28;19960;-47
2023/10/06 11:02:12;;;;;;;;;;;;;;;18.39;91.01;102244.28;5115209;28;19922;-47
2023/10/06 11:04:40;;;;;;;;;;;;;;;18.56;89.75;102251.56;5114922;28;19912;-48
2023/10/06 11:07:10;;;;;;;;;;;;;;;18.55;90.25;102248.09;5115557;28;19912;-48
2023/10/06 11:09:46;;;;;;;;;;;;;;;18.55;90.14;102248.09;5115277;28;19934;-45
2023/10/06 11:12:18;;;;;;;;;;;;;;;18.63;90.54;102252.56;5114312;28;19938;-46
2023/10/06 11:14:44;;;;;;;;;;;;;;;18.62;89.97;102256.91;5115322;28;20362;-47
2023/10/06 11:17:11;;;;;;;;;;;;;;;18.55;89.39;102250.69;5115005;28;19918;-48
2023/10/06 11:19:38;;;;;;;;;;;;;;;18.40;89.13;102247.78;5115428;28;19994;-48
2023/10/06 11:22:13;;;;;;;;;;;;;;;18.24;90.52;102249.19;5115213;28;19945;-46
2023/10/06 11:24:44;;;;;;;;;;;;;;;18.22;90.54;102237.88;5114424;28;19912;-47
2023/10/06 11:27:11;;;;;;;;;;;;;;;18.24;91.72;102238.75;5115432;28;19919;-49
2023/10/06 11:29:36;;;;;;;;;;;;;;;18.20;92.10;102243.03;5115062;28;20374;-48
2023/10/06 11:32:02;;;;;;;;;;;;;;;18.14;91.93;102232.50;5114206;28;19911;-49
2023/10/06 11:34:27;;;;;;;;;;;;;;;18.09;93.14;102232.38;5114313;28;19912;-48
2023/10/06 11:36:54;;;;;;;;;;;;;;;18.27;91.26;102228.41;5114367;28;19919;-48
2023/10/06 11:39:23;;;;;;;;;;;;;;;18.49;91.87;102239.22;5113718;28;20014;-46
2023/10/06 11:41:50;;;;;;;;;;;;;;;18.67;89.19;102234.38;5114813;28;20284;-49
2023/10/06 11:44:15;;;;;;;;;;;;;;;18.71;88.63;102233.56;5114557;28;19911;-47
2023/10/06 11:46:56;;;;;;;;;;;;;;;18.59;89.49;102222.88;5114247;28;19964;-47
2023/10/06 11:49:23;;;;;;;;;;;;;;;18.60;89.36;102224.66;5114386;28;19912;-48
2023/10/06 11:51:49;;;;;;;;;;;;;;;18.65;91.06;102214.31;5114684;28;19912;-48
2023/10/06 11:54:14;;;;;;;;;;;;;;;18.64;89.71;102210.78;5113727;28;19918;-49
2023/10/06 11:56:49;;;;;;;;;;;;;;;18.56;90.61;102209.78;5114480;28;20349;-48
2023/10/06 11:59:22;;;;;;;;;;;;;;;18.54;91.67;102201.03;5114283;28;19954;-47
2023/10/06 12:01:48;;;;;;;;;;;;;;;18.54;91.52;102203.66;5114267;28;19911;-47
2023/10/06 12:04:23;;;;;;;;;;;;;;;18.61;91.94;102212.50;5114087;28;19956;-49
2023/10/06 12:06:50;;;;;;;;;;;;;;;18.78;92.05;102211.03;5113738;28;19912;-50
2023/10/06 12:09:23;;;;;;;;;;;;;;;18.97;90.81;102207.06;5113973;28;19918;-49
2023/10/06 12:11:48;;;;;;;;;;;;;;;19.02;90.31;102208.00;5114309;28;19911;-50
2023/10/06 12:14:13;;;;;;;;;;;;;;;19.04;91.08;102214.16;5113091;28;19918;-48
2023/10/06 12:16:38;;;;;;;;;;;;;;;19.08;88.68;102210.72;5114222;28;20371;-48
2023/10/06 12:19:05;;;;;;;;;;;;;;;19.16;90.70;102204.72;5114242;28;19947;-50
2023/10/06 12:21:30;;;;;;;;;;;;;;;19.46;92.04;102212.16;5113133;28;20389;-50
2023/10/06 12:23:56;;;;;;;;;;;;;;;19.88;88.61;102202.28;5114173;28;19911;-51
2023/10/06 12:26:22;;;;;;;;;;;;;;;20.46;85.36;102203.81;5113654;28;20393;-49
2023/10/06 12:28:48;;;;;;;;;;;;;;;20.94;83.98;102185.94;5113253;28;19911;-50
2023/10/06 12:31:13;;;;;;;;;;;;;;;21.41;79.52;102197.59;5113561;28;19935;-50
2023/10/06 12:33:39;;;;;;;;;;;;;;;21.64;71.82;102188.16;5095736;28;20283;-50
2023/10/06 12:36:08;;;;;;;;;;;;;;;21.75;72.62;102182.94;5113303;28;20002;-48
2023/10/06 12:38:34;;;;;;;;;;;;;;;21.80;68.01;102175.13;5113580;28;20359;-50